Anthony Murphy

Chefscout - Ipswich Town
3 Dez 2028
Sonntag
Verarbeitung

Persönlichkeit

Anpassungsfähigkeit (5) Ehrgeiz (2) Kontroverse (7) Loyalität (8) Druck (3) Professionalität (5) Fairness (4) Temperament (16)

Profil

Trainerstil Demokratisch
Lizenz Kontinentale B
Entschlossenheit 12
Menschenführung 12
Motivation 12
Disziplin 4
Arbeitszufriedenheit
100%
Ermüdung
0%
Rolle Chefscout
Gehalt 27.2K p/W
Vertrag 14.03.2030

Leistung

Verhalten Gut
Trainingseffektivität
50%
Spielerentwicklung
30%
Verletzungsprävention
45%
Taktische Umsetzung
30%

Letzte Ereignisse

Nahm an einer Scouting-Besprechung teil jetzt
Empfahl ein Transferziel jetzt
Empfahl ein Transferziel jetzt
Nahm an einer Scouting-Besprechung teil 7T her
Empfahl ein Transferziel 7T her
Empfahl ein Transferziel 7T her
Empfahl ein Transferziel 7T her
Empfahl ein Transferziel 7T her

Aktuell beobachtet

166
Spieler Verein Status Fähigkeit Vertrauen Beobachtet Zuletzt beobachtet Letzte Stimme
Yousef Salech Cardiff City Aktiv 138 / 143 55% 1 12.06.2028 -
Ronan Kpakio AC Milan Aktiv 124 / 130 40% 2 31.05.2028 -
Riquelme Thompson-Jones Accrington Stanley Aktiv 105 / 126 40% 7 29.05.2028 -
Josh Nichols Oldham Athletic Aktiv 120 / 124 40% 5 27.05.2028 -
Giovanni Leoni Lincoln City Aktiv 153 / 145 40% 3 27.05.2028 -
Jan Bürger Northampton Town Aktiv 110 / 119 40% 3 24.05.2028 -
Amine Boukamir Charleroi Aktiv 100 / 107 40% 3 24.05.2028 -
Joel Ezra Enyimba Aktiv 101 / 101 40% 1 24.05.2028 -
Jorthy Mokio ADO Den Haag Aktiv 135 / 141 40% 3 22.05.2028 -
Trey Nyoni Rotherham United Aktiv 134 / 135 40% 4 22.05.2028 -
Oskar Pietuszewski Estrela da Amadora Aktiv 121 / 138 40% 1 21.05.2028 -
Gabriel Mec Feirense Aktiv 118 / 130 40% 1 21.05.2028 -
Miguel Figueiredo Benfica Aktiv 126 / 132 40% 4 19.05.2028 -
Tyler Fletcher Rotherham United Aktiv 118 / 128 40% 3 18.05.2028 -
Martim Cunha Porto Aktiv 113 / 109 40% 2 16.05.2028 -
Lautaro Dufur Juventud Aktiv 105 / 120 40% 1 15.05.2028 -
Bernardo Lima Porto Aktiv 103 / 123 40% 3 12.05.2028 -
Olivier Mambwa Young Boys Aktiv 109 / 124 40% 1 10.05.2028 -
Andrey Ivlev Nizhniy Novgorod Aktiv 110 / 109 40% 3 09.05.2028 -
Rio Ngumoha Plymouth Argyle Aktiv 138 / 136 40% 1 09.05.2028 -
André Miranda Porto Aktiv 109 / 115 40% 1 09.05.2028 -
Noahkai Banks FC Augsburg Aktiv 151 / 153 40% 1 07.05.2028 -
Shea Lacey Crystal Palace Aktiv 130 / 143 40% 1 06.05.2028 -
Gabe Forsyth Colchester United Aktiv 106 / 115 40% 1 06.05.2028 -
Luka Vušković Tottenham Aktiv 138 / 144 40% 1 06.05.2028 -
Nazareno Roselli Defensa y Justicia Aktiv 117 / 128 40% 1 05.05.2028 -
Ryan Kavuma-McQueen Accrington Stanley Aktiv 130 / 126 40% 1 03.05.2028 -
Giovanni Cantizano Fulham Aktiv 125 / 125 40% 1 02.05.2028 -
Daniel Banjaqui Benfica Aktiv 125 / 123 40% 4 29.04.2028 -
Olivier Leroux Mouscron Aktiv 113 / 102 40% 4 27.04.2028 -
Celías Ingenthron Platense Aktiv 132 / 136 40% 1 24.04.2028 -
Denys Smetana Rukh Aktiv 97 / 104 40% 1 22.04.2028 -
Victor Hernandez Santa Fe Aktiv 136 / 107 40% 1 10.04.2028 -
Josh Acheampong Everton Aktiv 132 / 158 40% 3 08.04.2028 -
Ayden Heaven Portsmouth Aktiv 142 / 149 40% 2 04.04.2028 -
Honest Ahanor Atalanta Aktiv 147 / 136 40% 1 04.04.2028 -
Nejc Viher NK Maribor Aktiv 130 / 142 40% 4 03.04.2028 -
Federico Matarán Giana Erminio Aktiv 95 / 124 40% 2 02.04.2028 -
Kiani Inge Groningen Aktiv 117 / 117 40% 2 23.03.2028 -
Tobiáš Pališčák Zlin Aktiv 89 / 105 40% 1 23.03.2028 -
Matvey Bardachev Zenit Aktiv 99 / 97 40% 3 18.03.2028 -
Augusto Bando Ascoli Aktiv 113 / 107 40% 1 18.03.2028 -
Christos Mouzakitis Hull City Aktiv 137 / 146 40% 1 17.03.2028 -
Alessio Insignito Spezia Aktiv 112 / 119 40% 1 10.03.2028 -
Jakub Adkonis Korona Aktiv 114 / 109 40% 1 08.03.2028 -
Harbor Miller LA Galaxy Aktiv 112 / 121 40% 1 14.02.2028 -
Mao Hosoya Santos Aktiv 134 / 135 67% 1 01.01.2028 Befürworten
Toni Fruk Talleres Aktiv 132 / 133 66% 1 01.01.2028 Befürworten
Dion Beljo AJ Auxerre Aktiv 131 / 132 66% 1 01.01.2028 Befürworten
Kevin Schade Chelsea Aktiv 149 / 157 40% 2 29.12.2027 -
Kasey McAteer Barnsley Aktiv 139 / 128 40% 1 28.12.2027 -
Amine Adli Bournemouth Aktiv 140 / 142 40% 3 27.12.2027 -
Callum Hudson-Odoi Nottingham Forest Aktiv 159 / 155 40% 1 27.12.2027 -
Tino Livramento Newcastle United Aktiv 155 / 156 40% 1 25.12.2027 -
Carlos Alcaraz Stoke City Aktiv 144 / 141 40% 2 22.12.2027 -
Max Bird Birmingham Aktiv 126 / 125 40% 1 22.12.2027 -
Óscar Mingueza Crystal Palace Aktiv 149 / 141 40% 2 20.12.2027 -
Fábio Carvalho Brentford Aktiv 132 / 136 40% 5 17.12.2027 -
Moisés Caicedo Chelsea Aktiv 174 / 184 40% 2 17.12.2027 -
Emile Smith Rowe Cardiff City Aktiv 146 / 164 40% 5 16.12.2027 -
Evann Guessand Aston Villa Aktiv 163 / 143 40% 2 16.12.2027 -
Jaidon Anthony Derby County Aktiv 136 / 126 40% 4 14.12.2027 -
Jaden Philogene Wolverhampton Aktiv 151 / 142 40% 2 14.12.2027 -
Marcus Tavernier Bournemouth Aktiv 156 / 155 40% 1 11.12.2027 -
Manuel Ugarte Leicester City Aktiv 157 / 154 40% 1 11.12.2027 -
Mikkel Damsgaard Brentford Aktiv 155 / 140 40% 2 10.12.2027 -
Jayden Bogle Leeds United Aktiv 138 / 133 40% 2 10.12.2027 -
Nicolás González Juventus Aktiv 157 / 147 40% 2 09.12.2027 -
Boubacar Kamara Aston Villa Aktiv 179 / 178 40% 3 06.12.2027 -
Ismaïla Sarr Crystal Palace Aktiv 144 / 144 40% 2 06.12.2027 -
Matteo Ruggeri Middlesbrough Aktiv 161 / 157 40% 3 05.12.2027 -
Zito Luvumbo Cagliari Aktiv 127 / 126 40% 1 04.12.2027 -
Xaver Schlager Nottingham Forest Aktiv 168 / 149 40% 1 02.12.2027 -
Gonçalo Oliveira Benfica Aktiv 112 / 125 40% 1 02.12.2027 -
Kevin Fulham Aktiv 159 / 156 40% 5 27.11.2027 -
Tobias Moi Lillestrom Aktiv 93 / 112 40% 1 27.11.2027 -
Exequiel Palacios Lazio Aktiv 164 / 166 40% 2 26.11.2027 -
Mohamed-Ali Cho Hull City Aktiv 147 / 141 40% 3 23.11.2027 -
Juanlu Bournemouth Aktiv 149 / 164 40% 2 22.11.2027 -
William Osula Wrexham Aktiv 139 / 137 40% 1 22.11.2027 -
Ryan Sessegnon Fulham Aktiv 148 / 156 40% 2 21.11.2027 -
Ben Gannon Doak Charlton Athletic Aktiv 142 / 147 40% 2 20.11.2027 -
Largie Ramazani Leeds United Aktiv 140 / 148 40% 1 20.11.2027 -
Jack McGlynn Stoke City Aktiv 128 / 147 40% 4 16.11.2027 -
Esquerdinha Notts County Aktiv 109 / 117 40% 1 16.11.2027 -
Eddie Nketiah Crystal Palace Aktiv 153 / 137 40% 2 13.11.2027 -
Savinho Tottenham Aktiv 168 / 164 40% 1 12.11.2027 -
João Pedro Chelsea Aktiv 145 / 148 40% 2 11.11.2027 -
Xavi Simons Tottenham Aktiv 164 / 160 40% 1 11.11.2027 -
Christian Pulisic AC Milan Aktiv 157 / 163 40% 1 07.11.2027 -
Harry Wilson Leeds United Aktiv 142 / 155 40% 1 06.11.2027 -
Igor Burnley Aktiv 150 / 141 40% 1 06.11.2027 -
Marquinhos Spartak Moscow Aktiv 150 / 128 40% 1 05.11.2027 -
Adrian Skogmar Malmo FF Aktiv 126 / 116 40% 1 04.11.2027 -
Quinten Timber Crystal Palace Aktiv 148 / 147 40% 2 02.11.2027 -
James Maddison Tottenham Aktiv 150 / 167 40% 1 31.10.2027 -
Brooke Norton-Cuffy Hull City Aktiv 132 / 142 40% 1 27.10.2027 -
Nordi Mukiele Sunderland Aktiv 161 / 139 40% 3 22.10.2027 -
Omari Hutchinson Nottingham Forest Aktiv 143 / 146 40% 1 20.10.2027 -
Pedro Porro Tottenham Aktiv 148 / 157 40% 2 19.10.2027 -
Rico Henry River Plate Aktiv 148 / 136 40% 1 17.10.2027 -
Morgan Rogers Chelsea Aktiv 175 / 152 40% 1 16.10.2027 -
David Brooks Bournemouth Aktiv 154 / 135 40% 1 14.10.2027 -
Amadou Onana Aston Villa Aktiv 171 / 153 40% 1 12.10.2027 -
Yeremy Pino Crystal Palace Aktiv 148 / 166 40% 1 09.10.2027 -
Archie Gray Southampton Aktiv 150 / 152 40% 1 08.10.2027 -
Chemsdine Talbi Sunderland Aktiv 140 / 147 40% 4 06.10.2027 -
Enzo Le Fée Sunderland Aktiv 132 / 143 40% 2 05.10.2027 -
André Wolverhampton Aktiv 158 / 150 40% 1 05.10.2027 -
Malo Gusto Chelsea Aktiv 152 / 166 40% 2 04.10.2027 -
Charles De Ketelaere Tottenham Aktiv 148 / 146 40% 2 01.10.2027 -
Julio Enciso Aston Villa Aktiv 150 / 150 40% 1 30.09.2027 -
Reece James Chelsea Aktiv 187 / 166 40% 1 26.09.2027 -
Nicolas Jackson Aston Villa Aktiv 157 / 138 40% 1 21.09.2027 -
Toby Collyer West Bromwich Albion Aktiv 142 / 130 40% 1 18.09.2027 -
James McAtee Everton Aktiv 155 / 158 40% 1 12.09.2027 -
Ismaël Bennacer Boca Juniors Aktiv 139 / 144 40% 1 12.09.2027 -
Quilindschy Hartman Burnley Aktiv 154 / 153 40% 1 11.09.2027 -
Carlos Baleba Norwich City Aktiv 155 / 153 40% 1 06.09.2027 -
Zion Suzuki Aston Villa Aktiv 154 / 157 40% 1 29.06.2027 -
Temirlan Anarbekov Kairat Aktiv 110 / 107 40% 1 28.06.2027 -
Tiago Freitas Benfica Aktiv 103 / 111 40% 1 03.06.2027 -
Yehor Yarmoliuk Brentford Aktiv 137 / 159 40% 2 01.06.2027 -
Pedro de la Vega Columbus Crew Aktiv 133 / 134 66% 1 01.06.2027 Befürworten
António Silva Bournemouth Aktiv 154 / 152 40% 1 01.06.2027 -
Samuele di Benedetto Twente Aktiv 114 / 114 40% 1 31.05.2027 -
Lucas Agazzi Villarreal Aktiv 128 / 127 40% 1 15.01.2027 -
Cemran Dansin Orlando Pirates Aktiv 116 / 121 40% 1 15.01.2027 -
Owen Lunt Crewe Alexandra Aktiv 90 / 115 40% 2 12.01.2027 -
Caleb Yirenkyi Coventry City Aktiv 145 / 133 40% 3 11.01.2027 -
David Ozoh Derby County Aktiv 118 / 134 40% 1 07.01.2027 -
Kamaldeen Atiemo Wa All Stars Aktiv 87 / 91 40% 1 05.01.2027 -
Reed Baker-Whiting Nashville SC Aktiv 100 / 105 40% 2 02.01.2027 -
Diogo Monteiro Tondela Aktiv 106 / 98 40% 1 01.01.2027 -
Jesus Ferreira Seattle Sounders Aktiv 135 / 132 40% 1 30.12.2026 -
Petar Stanić Ludogorets Aktiv 151 / 145 40% 1 30.12.2026 -
Matt O'Riley Brighton Aktiv 138 / 156 40% 2 29.12.2026 -
Jack Rudoni Coventry City Aktiv 134 / 141 40% 3 21.12.2026 -
Milan van Ewijk Coventry City Aktiv 140 / 125 40% 2 19.12.2026 -
Reda Khadra Qarabag Aktiv 140 / 131 40% 2 18.12.2026 -
Marcel Ruiz Crystal Palace Aktiv 155 / 145 40% 2 17.12.2026 -
Giacomo Raspadori Atalanta Aktiv 136 / 147 40% 1 13.12.2026 -
Aaron Hickey Brentford Aktiv 139 / 135 40% 2 09.12.2026 -
Jordan Beyer Burnley Aktiv 149 / 129 40% 2 08.12.2026 -
Marcelo Allende Mamelodi Sundowns Aktiv 110 / 134 40% 2 04.12.2026 -
Tomáš Rigo Stoke City Aktiv 126 / 137 40% 2 04.12.2026 -
Mbekezeli Mbokazi Chicago Fire Aktiv 134 / 132 40% 5 03.12.2026 -
Tyrese Campbell Sheffield United Aktiv 143 / 126 40% 1 03.12.2026 -
Reece Braithwaite Bloemfontein Celtic Aktiv 93 / 118 40% 1 03.12.2026 -
Adam Wharton Crystal Palace Aktiv 139 / 144 40% 2 29.11.2026 -
Rodrigo Gomes Wolverhampton Aktiv 132 / 150 40% 1 22.11.2026 -
Elliot Anderson Manchester City Aktiv 146 / 152 40% 1 20.11.2026 -
Wilson Isidor Sunderland Aktiv 137 / 122 40% 1 17.11.2026 -
Lucas Bergvall Tottenham Aktiv 128 / 141 40% 2 09.11.2026 -
Antony Portland Timbers Aktiv 147 / 122 40% 1 28.10.2026 -
Nicolas Madsen Queens Park Rangers Aktiv 140 / 117 40% 1 19.10.2026 -
Talles Magno New York City Aktiv 114 / 130 40% 2 17.10.2026 -
Takehiro Tomiyasu Crystal Palace Aktiv 145 / 137 40% 1 15.10.2026 -
Michael Kayode Brentford Aktiv 141 / 150 40% 1 15.10.2026 -
Alex Scott Bournemouth Aktiv 139 / 139 40% 1 08.10.2026 -
Keane Lewis-Potter Brentford Aktiv 135 / 152 40% 1 06.10.2026 -
Marcus Edwards Burnley Aktiv 147 / 127 40% 1 06.10.2026 -
Djordje Mihailović Toronto FC Aktiv 147 / 137 40% 1 05.10.2026 -
James Bacca La Equidad Aktiv 136 / 149 40% 2 11.09.2026 -
Philippe Ndinga Philadelphia Union Aktiv 100 / 113 40% 1 24.08.2026 -
Facundo Di Biasi Gimnasia La Plata Aktiv 118 / 135 40% 1 21.08.2026 -